DIRECCIÓN GENERAL DE AERONÁUTICA CIVIL
DIRECCIÓN METEOROLÓGICA DE CHILE
INFORMACIÓN METAR Y TAF

FIR SANTIAGO

Estación: SCSE
METAR SCSE 230700Z 16002KT 9999 OVC010 13/11 Q1017=

TAF SCSE 230420Z 2306/2406 14004KT CAVOK TX17/2319Z TN08/2310Z TEMPO 2308/2313 VRB02KT 4000 BR BKN010 BECMG 2314/2316 27008KT BECMG 2317/2319 29010KT BECMG 2323/2401 16004KT=

Estación: SCER
NIL=

NIL=

Estación: SCRD
METAR SCRD 222200Z 18010KT CAVOK 13/08 Q1018=

TAF SCRD 221039Z 2212/2224 VRB02KT CAVOK TX17/2218Z TN10/2212Z BECMG 2216/2218 20010KT=

Estación: SCVM
METAR SCVM 230700Z 00000KT CAVOK 10/07 Q1018=

TAF SCVM 230421Z 2306/2406 19008KT CAVOK TX19/2319Z TN07/2310Z TEMPO 2308/2312 4000 BR NSC BECMG 2312/2314 33005KT TEMPO 2318/2322 18012KT BECMG 2401/2403 16005KT=

Estación: SCTB
METAR SCTB 222200Z 16002KT 5000 HZ SCT050 BKN100 13/09 Q1019=

TAF AMD SCTB 221316Z 2213/2224 VRB02KT 3000 BR BKN100 TX17/2218Z TN08 /2224Z BECMG 2216/2218 21005KT 5000 HZ NSC=

Estación: SCEL
METAR SCEL 230700Z 16008KT 9999 BKN022 10/06 Q1018 NOSIG=

TAF SCEL 230421Z 2306/2406 VRB02KT 4000 HZ NSC TX17/2319Z TN02/2310Z TEMPO 2306/2309 3000 BR NSC TEMPO 2309/2313 0600 BCFG SCT005 BECMG 2314/2315 17004KT 4000 HZ BECMG 2315/2317 8000 BECMG 2318/2320 18013KT CAVOK BECMG 2401/2403 16005KT=

Estación: SCSN
METAR SCSN 230700Z AUTO 24003KT CAVOK 06/05 Q1019=

TAF SCSN 221112Z 2212/2224 VRB02KT CAVOK TX17/2218Z TN09/2212Z BECMG 2218/2220 23008KT=

Estación: SCRG
METAR SCRG 222000Z 11008KT 9000 FEW060 BKN120 15/08 Q1018=

TAF AMD SCRG 221305Z 2213/2224 14007KT 4000 BR OVC010 TX16/2218Z TN11 /2224Z BECMG 2216/2218 18012KT 7000 NSC BECMG 2220/2222 CAVOK=

Estación: SCIC
SPECI SCIC 230702Z AUTO VRB02KT 1900 BR NCD 04/04 Q1018=

TAF AMD SCIC 221302Z 2213/2224 21005KT 4000 HZ SCT008 BKN070 TX14/ 2218Z TN10/2224Z BECMG 2215/2217 7000 SCT015 BKN100 BECMG 2218/2220 22008KT 9999 SCT025=

Estación: SCCH
METAR SCCH 222200Z 00000KT 9999 FEW060 13/07 Q1020=

TAF AMD SCCH 221310Z 2213/2224 VRB02KT 2000 BR SCT008 SCT070 TX14/ 2218Z TN10/2224Z BECMG 2215/2217 28008KT 8000 SCT015 BKN120=

Estación: SCIE
METAR SCIE 230700Z 14003KT 9999 FEW030 08/07 Q1020=

TAF COR SCIE 230423Z 2306/2406 VRB02KT 8000 KBKN040 TX16/2318Z TN05/ 2310Z TEMPO 2308/2313 3000 -DZ BKN008 BKN020 BECMG 2308/2310 SCT020 BKN030 BECMG 2314/2316 17008KT SCT035 BECMG 2318/2320 20012KT CAVOK=

Estación: SCGE
METAR SCGE 222100Z 34005KT 9999 BKN010 15/06 Q1020=

TAF AMD SCGE 221307Z 2213/2224 VRB02KT 0400 FG NSC TX14/2218Z TN10/2224Z BECMG 2214/2216 18008KT 8000 NSC BECMG 2219/2221 23010KT CAVOK=


Volver